The Official Home Page Of The Professional Rodeo Cowboys Association PRCA RAM WORLD STANDINGS
ProRodeoTv.Com
Red

PRCA Stock Statistics

SEARCH BY:
Stock Rodeo Contestant Stock Contractor

Zach Hibler

EVENT:
Unofficial results reflect placement at time of Web posting and can change.

SEASON BREAKDOWN

Season Attempts Qual Rides Re-rides Ride %
2018 75 71 0 94.67 %
2017 83 77 0 92.77 %
2016 70 60 0 85.71 %
Totals 228 208 0 0.00 %

RODEO DETAIL

Date Location Rodeo SC Brand Ride Comments Stock Score Contestant Score
7/14/2018 Casper, WY Central Wyoming Fair & PRCA Rodeo CB T82 81.00 21.00 / 22.00 22.00 / 16.00
7/12/2018 Casper, WY Central Wyoming Fair & PRCA Rodeo CC -Q39 82.50 20.00 / 18.50 23.00 / 21.00
7/6/2018 St. Paul, OR St. Paul Rodeo KR 320 72.50 21.50 / 19.00 19.00 / 13.00
7/6/2018 Estes Park, CO Rooftop Rodeo CB K28 74.00 18.00 / 19.00 20.00 / 17.00
7/5/2018 Oakley City, UT Oakley Independence Day Rodeo BT A+6 78.00 18.00 / 19.00 21.00 / 20.00
7/4/2018 West Jordan, UT Western Stampede CC S8 84.50 20.50 / 20.00 23.00 / 21.00
7/3/2018 Cody, WY Cody Stampede FR 013 77.50 21.00 / 21.00 19.00 / 16.50
7/2/2018 Greeley, CO Greeley Stampede BU 052 71.00 20.00 / 20.00 15.00 / 16.00
6/30/2018 Flagstaff, AZ Flagstaff Pro Rodeo CC -Q39 80.00 20.00 / 19.00 22.00 / 19.00
6/29/2018 Prescott, AZ World s Oldest Rodeo HV 203 77.00 20.00 / 20.00 19.00 / 18.00
6/28/2018 Springdale, AR Rodeo of The Ozarks SH 722 80.00 20.00 / 19.00 21.00 / 20.00
6/27/2018 Pecos, TX West Of The Pecos Rodeo CR 364 85.00 20.00 / 20.00 22.00 / 23.00
6/22/2018 Reno, NV Reno Rodeo RO 929X 77.00 21.00 / 21.00 19.00 / 16.00
6/21/2018 Santa Fe, NM Rodeo de Sante Fe HV 746 78.50 20.00 / 19.50 19.00 / 20.00
6/17/2018 Reno, NV Reno Rodeo FF J4 79.00 20.00 / 19.00 21.00 / 19.00
6/16/2018 Reno, NV Reno Rodeo FU 026 81.50 22.00 / 23.00 18.00 / 18.50
6/8/2018 Cortez, CO Ute Mountain Roundup Rodeo SR S9 84.50 18.00 / 21.50 22.00 / 23.00
6/7/2018 Clovis, NM Pioneer Days Rodeo CC S11 83.50 20.00 / 20.00 21.50 / 22.00
6/6/2018 Woodward, OK Woodward Elks Rodeo BU 22 70.00 19.00 / 20.00 16.00 / 15.00
6/2/2018 Elizabeth, CO Elizabeth Stampede Rodeo SM 87 80.00 19.00 / 17.00 22.00 / 22.00
6/1/2018 Hugo, OK Hugo PRCA Rodeo RH 01 84.00 21.00 / 21.00 21.00 / 21.00
5/31/2018 Fort Smith, AR Old Fort Days Rodeo SS L18 76.50 20.00 / 21.00 17.00 / 18.50
5/26/2018 Garden City, KS Beef Empire Days PRCA Rodeo KR 819 81.50 19.00 / 20.00 21.50 / 21.00
5/25/2018 Claremore, OK Will Rogers Stampede PC 175MO 0.00 22.00 / 19.00 0.00 / 0.00
5/19/2018 Vernon, TX Santa Rosa Roundup BU 25 82.50 21.00 / 22.00 20.00 / 19.50
Page of 3
Per Page
 
 
 
PRCA National Sponsors
MGM Grand Polaris Ranger
Copyright © 2018 Professional Rodeo Cowboys Association. All rights reserved. No portion of ProRodeo.com may be duplicated, redistributed or manipulated in any form. By accessing any information beyond this page, you agree to abide by the Terms of Use.
PRCA Wrangler National Finals Rodeo Wrangler ProRodeo Tour Finale Presented by Justin Boots Xtreme Bulls RAM National Circuit Finals Rodeo ProRodeo Gear ProRodeo Tour